Weather observations for the past three days for
Claremore, Claremore Regional Airport
Metric (Imperial)
Date Time (cdt) Wind (kph) Vis. (km) Weather Sky Cond. Temperature (ºC) Relative Humidity Wind Chill (°C) Heat Index (°C) Pressure Precipitation (cm)
Air Dwpt 6 hour altimeter (cm) sea level (mb) 1 hr 3 hr 6 hr
Max. Min.
05 22:35 NE 17 G 39 16.09 Overcast SCT021 OVC029 10 8 88% 8 75.97 0.0
05 22:15 N 13 G 39 16.09 Overcast OVC020 10 8 88% 8 75.97 0.0
05 21:55 NE 26 G 41 14.48 Overcast OVC020 10 8 88% 7 75.9 0.0
05 21:35 NE 20 G 35 16.09 Overcast OVC020 10 8 88% 8 75.87 0.0
05 21:15 NE 17 G 35 16.09 Overcast OVC019 10 8 88% 8 75.84 0.0
05 20:55 NE 15 G 37 16.09 Overcast BKN020 OVC030 10 8 88% 8 75.79 0.0
05 20:35 NE 17 G 31 16.09 Overcast OVC020 10 8 88% 8 75.77 0.0
05 20:15 NE 22 G 41 16.09 Overcast OVC019 10 8 88% 7 75.77 0.0
05 19:55 NE 17 G 35 16.09 Overcast OVC021 10 8 88% 8 75.77 0.0
05 19:35 NE 24 G 43 16.09 Overcast BKN022 OVC028 10 8 88% 7 75.72 0.0
05 19:15 NE 20 G 39 16.09 Light Rain OVC026 10 8 88% 8 75.74 0.0
05 18:55 NE 26 G 43 16.09 Overcast OVC024 11 7 77% 75.72 0.0
05 18:35 NE 30 G 44 16.09 Overcast OVC023 11 7 77% 75.72 0.0
05 18:15 NE 28 G 43 16.09 Overcast OVC023 11 7 77% 75.72 0.0
05 17:55 NE 28 G 43 16.09 Overcast OVC025 11 7 77% 75.67 0.0
05 17:35 NE 28 G 43 16.09 Overcast OVC025 11 7 77% 75.64 0.0
05 17:15 NE 26 G 41 16.09 Overcast OVC025 12 7 72% 75.64 0.0
05 16:55 NE 22 G 39 16.09 Overcast OVC024 12 8 77% 75.64 0.0
05 16:35 NE 31 G 54 16.09 Overcast OVC023 12 8 77% 75.64 0.0
05 16:15 NE 31 G 52 16.09 Overcast OVC023 12 8 77% 75.59 0.0
05 15:55 NE 28 G 54 16.09 Overcast OVC022 12 9 82% 75.62 0.0
05 15:35 N 28 G 44 16.09 Overcast OVC019 12 9 82% 75.59 0.0
05 15:15 N 22 G 41 16.09 Overcast OVC016 12 10 88% 75.59 0.0
05 14:55 NE 22 G 41 16.09 Overcast OVC016 12 11 94% 75.62 0.0
05 14:35 NE 22 G 46 16.09 Overcast OVC017 12 11 94% 75.59 0.0
05 14:15 NE 20 G 44 16.09 Overcast OVC017 13 11 88% 75.57 0.0
05 13:55 NE 22 G 43 16.09 Overcast OVC017 13 12 94% 75.54 0.0
05 13:35 NE 20 G 39 16.09 Overcast OVC015 13 12 94% 75.57 0.0
05 13:15 NE 26 G 43 16.09 Overcast OVC015 13 12 94% 75.51 0.0
05 12:55 NE 30 G 46 16.09 Overcast OVC015 13 12 94% 75.49 0.0
05 12:35 NE 30 G 46 16.09 Overcast OVC014 13 13 100% 75.49 0.0
05 12:15 NE 26 G 48 16.09 Overcast OVC012 13 13 100% 75.44 0.0
05 11:55 NE 26 G 46 16.09 Overcast OVC012 13 13 100% 75.41 0.0
05 11:35 NE 31 G 43 16.09 Overcast OVC011 14 14 100% 75.44 0.0
05 11:15 NE 28 G 46 16.09 Overcast OVC011 14 14 100% 75.41 0.0
05 10:35 N 24 G 37 16.09 Overcast OVC015 15 15 100% 75.36 0.0
05 10:15 NE 20 G 33 16.09 Overcast BKN010 OVC015 16 16 100% 75.36 0.0
05 09:55 NE 17 G 30 16.09 Overcast BKN009 OVC022 18 18 100% 75.34 0.0
05 09:35 NE 17 G 30 16.09 Overcast BKN025 OVC029 19 19 100% 75.29 0.0
05 09:15 NE 20 G 35 16.09 Overcast OVC028 19 18 94% 75.29 0.0
05 08:55 NE 19 G 28 16.09 Overcast BKN027 OVC033 19 19 100% 75.29 0.0
05 08:35 NE 19 G 30 16.09 Mostly Cloudy FEW027 BKN033 BKN049 19 18 94% 75.31 0.0
05 08:15 NE 17 16.09 A Few Clouds FEW035 FEW080 19 18 94% 75.31 0.0
05 07:55 E 19 16.09 Mostly Cloudy FEW035 BKN080 19 18 94% 75.31 0.0
05 07:35 E 15 16.09 Overcast OVC075 19 18 94% 75.31 0.0
05 07:15 SE 17 16.09 Overcast FEW050 OVC070 18 17 94% 75.26 0.0
05 06:55 SE 17 G 28 16.09 Mostly Cloudy FEW038 SCT043 BKN065 18 17 94% 75.26 0.0
05 06:35 E 15 G 26 16.09 Overcast BKN037 BKN046 OVC060 18 17 94% 75.26 0.0
05 06:15 E 17 G 26 16.09 Overcast BKN035 BKN041 OVC046 18 17 94% 75.26 0.0
05 05:55 E 19 G 30 16.09 Overcast BKN034 OVC042 18 18 100% 75.26 0.0
05 05:35 E 22 16.09 Overcast OVC035 18 18 100% 75.23 0.0
05 05:15 E 19 G 33 16.09 Overcast OVC034 18 18 100% 75.23 0.0
05 04:55 E 20 G 35 16.09 Overcast OVC034 18 18 100% 75.21 0.0
05 04:35 E 20 G 31 16.09 Overcast OVC034 18 18 100% 75.21 0.0
05 04:15 E 22 16.09 Overcast OVC034 18 18 100% 75.21 0.0
05 03:55 E 22 16.09 Overcast OVC034 17 17 100% 75.21 0.0
05 03:35 E 20 16.09 Overcast OVC034 17 17 100% 75.23 0.0
05 03:15 E 19 G 31 16.09 Overcast OVC034 17 17 100% 75.23 0.0
05 02:55 E 19 G 31 16.09 Overcast OVC033 17 17 100% 75.23 0.0
05 02:35 E 24 G 41 16.09 Overcast OVC032 17 17 100% 75.26 0.0
05 02:15 NE 22 G 35 16.09 Overcast OVC032 18 17 94% 75.31 0.0
05 01:55 NE 22 16.09 Light Rain OVC033 19 18 94% 75.34 0.0
05 01:35 N 19 16.09 Overcast OVC034 19 18 94% 75.34 0.0
05 01:15 N 17 16.09 Overcast OVC037 19 18 94% 75.34 0.0
05 00:55 Vrbl 7 16.09 Overcast OVC039 19 17 88% 75.26 0.0
05 00:35 SE 11 16.09 Thunderstorm in Vicinity BKN040 19 17 88% 75.26 0.0
05 00:15 SE 17 16.09 Partly Cloudy SCT044 19 17 88% 75.23 0.0
04 23:55 SE 15 16.09 Mostly Cloudy FEW004 FEW019 BKN046 19 17 88% 75.23 0.0 0.08
04 23:35 SE 15 G 31 6.44 Thunderstorm in Vicinity Rain Fog/Mist SCT005 BKN021 OVC120 19 18 94% 75.26 0.0
04 23:15 SE 11 G 33 11.27 Light Rain FEW006 SCT021 BKN043 20 17 83% 75.26 0.0
04 22:55 S 19 G 28 16.09 Mostly Cloudy BKN044 BKN120 21 16 73% 75.26 0.0
04 22:35 SE 17 16.09 Overcast OVC045 21 16 73% 75.29 0.0
04 22:15 SE 15 16.09 Overcast OVC046 20 16 78% 75.34 0.0
04 21:55 SE 11 16.09 Mostly Cloudy BKN046 20 16 78% 75.36 0.0
04 21:35 SE 13 16.09 Fair CLR 20 16 78% 75.34 0.0
04 21:15 SE 13 16.09 A Few Clouds FEW049 21 16 73% 75.34 0.0
04 20:55 SE 11 16.09 Partly Cloudy SCT048 21 16 73% 75.34 0.0
04 20:35 S 11 G 22 16.09 Partly Cloudy SCT050 22 15 65% 75.31 0.0
04 20:15 S 15 16.09 Mostly Cloudy BKN050 22 15 65% 75.31 0.0
04 19:55 S 19 G 28 16.09 Mostly Cloudy BKN050 23 15 61% 75.31 0.0
04 19:35 S 17 16.09 Partly Cloudy SCT050 23 15 61% 75.31 0.0
04 19:15 S 17 G 30 16.09 Fair CLR 24 16 61% 25 75.31 0.0
04 18:55 S 20 G 33 16.09 Fair CLR 24 15 57% 25 75.31 0.0
04 18:35 S 24 G 33 16.09 Fair CLR 25 15 54% 26 75.31 0.0
04 18:15 S 22 G 35 16.09 Fair CLR 25 16 57% 26 75.31 0.0
04 17:55 S 28 G 43 16.09 Fair CLR 25 15 54% 26 75.31 0.0
04 17:35 S 22 G 39 16.09 Fair CLR 25 15 54% 26 75.31 0.0
04 17:15 S 26 G 37 16.09 Fair CLR 26 16 54% 27 75.31 0.0
04 16:55 S 33 G 46 16.09 Fair and Breezy CLR 25 15 54% 26 75.34 0.0
04 16:35 S 26 G 39 16.09 Fair CLR 26 16 54% 27 75.34 0.0
04 16:15 S 22 G 43 16.09 Fair CLR 26 16 54% 27 75.34 0.0
04 15:55 S 31 G 44 16.09 Fair CLR 27 16 51% 27 75.36 0.0
04 15:35 S 35 G 46 16.09 Fair and Breezy CLR 27 16 51% 27 75.36 0.0
04 15:15 S 39 G 48 16.09 Fair and Breezy CLR 27 16 51% 27 75.39 0.0
04 14:55 S 31 G 44 16.09 Fair CLR 27 17 54% 28 75.39 0.0
04 14:35 S 37 G 59 16.09 Fair and Breezy CLR 27 16 51% 27 75.39 0.0
04 14:15 S 35 G 52 16.09 Fair and Breezy CLR 27 17 54% 28 75.41 0.0
04 13:55 S 35 G 57 16.09 Fair and Breezy CLR 27 17 54% 28 75.44 0.0
04 13:35 S 26 G 48 16.09 Fair CLR 27 17 54% 28 75.46 0.0
04 13:15 S 37 G 54 16.09 Fair and Breezy CLR 27 16 51% 27 75.46 0.0
04 12:55 S 35 G 48 16.09 Fair and Breezy CLR 27 16 51% 27 75.49 0.0
04 12:35 S 33 G 54 16.09 Fair and Breezy CLR 26 16 54% 27 75.51 0.0
04 12:15 S 31 G 46 16.09 Fair CLR 26 15 51% 27 75.51 0.0
04 11:55 S 35 G 48 16.09 Fair and Breezy CLR 26 15 51% 27 75.54 0.0
04 11:35 S 31 G 44 16.09 Fair CLR 25 15 54% 26 75.54 0.0
04 11:15 S 30 G 50 16.09 Fair CLR 25 14 51% 26 75.57 0.0
04 10:55 S 31 G 44 16.09 Fair CLR 24 14 54% 25 75.57 0.0
04 10:35 SW 30 G 43 16.09 Fair CLR 24 14 54% 25 75.59 0.0
04 10:15 S 28 G 44 16.09 Fair CLR 23 13 53% 75.59 0.0
04 09:55 S 31 G 46 16.09 Fair CLR 22 13 57% 75.62 0.0
04 09:35 S 28 G 39 16.09 Fair CLR 21 12 57% 75.64 0.0
04 09:15 S 30 16.09 Fair CLR 20 12 60% 75.64 0.0
04 08:55 S 28 16.09 Fair CLR 20 12 60% 75.67 0.0
04 08:35 S 26 G 41 16.09 Fair CLR 19 12 64% 75.67 0.0
04 08:15 S 24 16.09 Fair CLR 18 12 68% 75.67 0.0
04 07:55 S 20 16.09 Fair CLR 18 12 68% 75.67 0.0
04 07:35 S 15 G 30 16.09 Fair CLR 17 11 68% 75.69 0.0
04 06:55 S 17 16.09 Fair CLR 16 11 72% 75.67 0.0
04 06:35 S 13 16.09 Fair CLR 17 10 64% 75.67 0.0
04 06:15 S 19 G 28 16.09 Fair CLR 17 10 64% 75.67 0.0
04 05:55 S 22 16.09 Fair CLR 17 10 64% 75.67 0.0
04 05:35 S 22 16.09 Fair CLR 17 10 64% 75.69 0.0
04 05:15 S 19 G 28 16.09 Fair CLR 17 10 64% 75.69 0.0
04 04:55 S 17 16.09 Fair CLR 17 10 64% 75.72 0.0
04 04:35 S 20 16.09 Fair CLR 17 10 64% 75.72 0.0
04 04:15 S 19 16.09 Fair CLR 17 10 64% 75.72 0.0
04 03:55 S 17 16.09 Fair CLR 17 10 64% 75.72 0.0
04 03:35 S 17 16.09 Fair CLR 16 10 68% 75.72 0.0
04 03:15 S 17 16.09 Fair CLR 16 10 68% 75.72 0.0
04 02:55 S 19 G 28 16.09 Fair CLR 17 10 64% 75.74 0.0
04 02:35 S 22 16.09 Fair CLR 17 10 64% 75.77 0.0
04 02:15 S 20 G 31 16.09 Fair CLR 18 10 60% 75.77 0.0
04 01:55 S 20 16.09 Fair CLR 18 10 60% 75.79 0.0
04 01:35 S 19 G 30 16.09 Fair CLR 18 10 60% 75.82 0.0
04 01:15 S 19 16.09 Fair CLR 18 10 60% 75.82 0.0
04 00:55 S 17 16.09 Fair CLR 18 11 64% 75.84 0.0
04 00:35 S 17 16.09 Fair CLR 18 11 64% 75.84 0.0
04 00:15 S 17 16.09 Fair CLR 18 11 64% 75.87 0.0
03 23:55 S 19 16.09 Fair CLR 19 11 60% 75.87 0.0
03 23:35 SW 19 16.09 Fair CLR 19 11 60% 75.87 0.0
03 23:15 S 19 16.09 Fair CLR 19 11 60% 75.87 0.0
03 22:55 S 20 16.09 Fair CLR 20 11 56% 75.87 0.0
03 22:35 S 19 16.09 Fair CLR 20 11 56% 75.87 0.0
03 22:15 S 19 G 28 16.09 Fair CLR 20 10 53% 75.87 0.0
03 21:55 S 20 16.09 Fair CLR 21 10 50% 75.87 0.0
03 21:35 S 20 16.09 Fair CLR 21 10 50% 75.84 0.0
03 21:15 S 19 16.09 Fair CLR 21 10 50% 75.84 0.0
03 20:55 S 19 11.27 Fair CLR 21 9 46% 75.84 0.0
03 20:35 S 15 16.09 Fair CLR 21 9 46% 75.82 0.0
03 20:15 S 15 16.09 Fair CLR 21 10 50% 75.82 0.0
03 19:55 SW 15 16.09 Fair CLR 22 10 47% 75.84 0.0
03 19:35 SW 17 G 28 16.09 Fair CLR 24 10 41% 25 75.82 0.0
03 19:15 SW 20 G 30 16.09 Fair CLR 25 10 39% 26 75.82 0.0
03 18:55 SW 20 16.09 Fair CLR 26 11 39% 26 75.84 0.0
03 18:35 SW 19 G 33 16.09 Fair CLR 28 10 32% 27 75.84 0.0
03 18:15 SW 20 G 31 16.09 Fair CLR 28 10 32% 27 75.84 0.0
03 17:55 SW 22 G 35 16.09 Fair CLR 29 9 29% 28 75.84 0.0
03 17:35 SW 20 G 31 14.48 Fair CLR 29 11 33% 28 75.84 0.0
03 17:15 SW 26 G 37 16.09 Fair CLR 29 11 33% 28 75.84 0.0
03 16:55 SW 22 G 33 16.09 Fair CLR 29 12 35% 28 75.87 0.0
03 16:35 S 22 G 33 16.09 Fair CLR 29 12 35% 28 75.9 0.0
03 16:15 SW 19 G 35 16.09 Fair CLR 29 11 33% 28 75.92 0.0
03 15:55 SW 20 G 33 16.09 Fair CLR 29 12 35% 28 75.95 0.0
03 15:35 SW 17 G 41 16.09 Fair CLR 29 13 37% 28 75.97 0.0
03 15:15 SW 22 G 35 16.09 Fair CLR 28 14 42% 28 76.02 0.0
03 14:55 SW 24 G 39 16.09 Fair CLR 28 14 42% 28 76.02 0.0
03 14:35 SW 22 16.09 Fair CLR 28 15 45% 28 76.05 0.0
03 14:15 S 22 16.09 Fair CLR 27 15 48% 27 76.07 0.0
03 13:55 SW 28 16.09 Fair CLR 26 14 48% 26 76.1 0.0
03 13:35 S 24 16.09 Fair CLR 26 15 51% 27 76.12 0.0
03 13:15 S 22 G 35 16.09 Fair CLR 25 14 51% 26 76.15 0.0
03 12:55 S 24 G 33 16.09 Fair CLR 25 14 51% 26 76.2 0.0
03 12:35 S 20 16.09 Fair CLR 24 14 54% 25 76.23 0.0
03 12:15 S 24 G 33 16.09 Fair CLR 24 13 50% 25 76.25 0.0
03 11:55 S 22 G 33 16.09 Fair CLR 23 13 53% 76.25 0.0
03 11:35 S 22 16.09 Fair CLR 22 13 57% 76.28 0.0
03 11:15 S 24 16.09 Fair CLR 21 12 57% 76.28 0.0
03 10:55 S 22 G 33 16.09 Fair CLR 21 11 53% 76.28 0.0
03 10:35 S 22 16.09 Fair CLR 20 11 56% 76.3 0.0
03 10:15 S 19 G 28 16.09 Fair CLR 19 10 56% 76.33 0.0
03 09:55 S 22 16.09 Fair CLR 19 10 56% 76.35 0.0
03 09:35 S 17 G 30 16.09 Fair CLR 18 10 60% 76.35 0.0
03 09:15 S 19 G 33 16.09 Fair CLR 17 9 60% 76.35 0.0
03 08:55 S 19 G 33 16.09 Fair CLR 16 8 59% 76.35 0.0
03 08:35 S 13 G 26 16.09 Fair CLR 15 9 68% 76.35 0.0
03 08:15 SE 11 16.09 Fair CLR 13 8 72% 76.35 0.0
03 07:55 SE 11 16.09 Fair CLR 12 8 77% 76.35 0.0
03 07:35 SE 9 16.09 Fair CLR 11 8 82% 76.38 0.0
03 07:15 S 11 16.09 Fair CLR 10 8 88% 9 76.35 0.0
03 06:55 SE 13 16.09 Fair CLR 9 7 87% 7 76.35 0.0
03 06:35 SE 7 16.09 Fair CLR 9 7 87% 8 76.35 0.0
03 06:15 S 9 16.09 Fair CLR 8 7 93% 7 76.35 0.0
03 05:35 S 7 16.09 Fair CLR 10 8 88% 9 76.35 0.0
03 05:15 S 9 16.09 Fair CLR 9 7 87% 8 76.35 0.0
03 04:55 S 7 16.09 Fair CLR 8 8 100% 7 76.38 0.0
03 04:35 SE 7 16.09 Fair CLR 8 8 100% 7 76.4 0.0
03 04:15 S 9 16.09 Fair CLR 8 8 100% 7 76.4 0.0
03 03:55 S 6 16.09 Fair CLR 8 8 100% 76.43 0.0
03 03:35 S 9 16.09 Fair CLR 8 7 93% 7 76.43 0.0
03 03:15 S 6 16.09 Fair CLR 6 6 100% 76.45 0.0
03 02:55 Calm 16.09 Fair CLR 8 7 93% 76.45 0.0
03 02:35 Calm 16.09 Fair CLR 7 7 100% 76.45 0.0
03 02:15 Calm 16.09 Fair CLR 7 7 100% 76.45 0.0
03 01:55 Calm 16.09 Fair CLR 7 7 100% 76.48 0.0
03 01:35 Calm 16.09 Fair CLR 6 6 100% 76.48 0.0
03 01:15 Calm 16.09 Fair CLR 8 7 93% 76.48 0.0
03 00:55 Calm 16.09 Fair CLR 8 8 100% 76.48 0.0
03 00:35 Calm 16.09 Fair CLR 8 7 93% 76.48 0.0
03 00:15 Calm 16.09 Fair CLR 8 8 100% 76.48 0.0
02 23:55 Calm 16.09 Fair CLR 9 8 94% 76.48 0.0
02 23:35 Calm 16.09 Fair CLR 8 8 100% 76.48 0.0
02 23:15 Calm 16.09 Fair CLR 9 9 100% 76.48 0.0
02 22:55 NE 7 16.09 Fair CLR 9 9 100% 8 76.48 0.0
Date Time (cdt) Wind (kph) Vis. (km) Weather Sky Cond. Air Dwpt Max. Min. Relative Humidity Wind Chill (°C) Heat Index (°C) altimeter (cm) sea level (mb) 1 hr 3 hr 6 hr
6 hour
Temperature (ºC) Pressure Precipitation (cm)